createdAt,value
2023-02-14T00:00:40.414Z,35.40
2023-02-14T00:03:14.277Z,30.80
2023-02-14T00:05:45.996Z,24.53
2023-02-14T00:08:17.668Z,32.13
2023-02-14T00:10:49.339Z,28.73
2023-02-14T00:13:21.120Z,25.50
2023-02-14T00:15:52.899Z,28.00
2023-02-14T00:18:44.901Z,23.57
2023-02-14T00:21:16.650Z,23.17
2023-02-14T00:23:48.339Z,23.53
2023-02-14T00:26:20.219Z,21.83
2023-02-14T00:28:51.929Z,28.40
2023-02-14T00:31:24.087Z,38.67
2023-02-14T00:33:55.903Z,28.23
2023-02-14T00:36:27.727Z,28.33
2023-02-14T00:38:59.534Z,26.80
2023-02-14T00:41:31.568Z,24.87
2023-02-14T00:44:03.509Z,30.40
2023-02-14T00:46:36.677Z,25.93
2023-02-14T00:49:08.875Z,36.77
2023-02-14T00:51:40.870Z,23.20
2023-02-14T00:54:12.671Z,27.37
2023-02-14T00:56:44.441Z,33.97
2023-02-14T00:59:16.356Z,27.63
2023-02-14T01:01:48.169Z,25.60
2023-02-14T01:04:19.930Z,25.93
2023-02-14T01:06:51.786Z,27.13
2023-02-14T01:09:23.475Z,24.60
2023-02-14T01:11:55.290Z,30.50
2023-02-14T01:14:27.115Z,23.70
2023-02-14T01:16:58.960Z,25.37
2023-02-14T01:19:30.798Z,22.77
2023-02-14T01:22:03.027Z,27.83
2023-02-14T01:27:24.966Z,28.97
2023-02-14T01:29:57.153Z,27.63
2023-02-14T01:32:31.645Z,31.97
2023-02-14T01:35:04.742Z,29.00
2023-02-14T01:37:37.223Z,26.40
2023-02-14T01:40:11.808Z,32.20
2023-02-14T01:42:43.666Z,25.53
2023-02-14T01:45:21.741Z,26.43
2023-02-14T01:47:55.789Z,30.67
2023-02-14T01:50:33.543Z,27.83
2023-02-14T01:53:09.554Z,23.67
2023-02-14T01:55:46.684Z,25.47
2023-02-14T01:58:22.837Z,30.23
2023-02-14T02:01:37.887Z,26.40
2023-02-14T02:04:15.431Z,24.53
2023-02-14T02:06:58.208Z,31.63
2023-02-14T02:09:48.953Z,27.20
2023-02-14T02:12:21.308Z,22.67
2023-02-14T02:14:55.584Z,29.83
2023-02-14T02:17:33.004Z,24.93
2023-02-14T02:20:46.366Z,26.10
2023-02-14T02:23:21.135Z,30.03
2023-02-14T02:26:37.516Z,27.03
2023-02-14T02:29:09.464Z,29.47
2023-02-14T02:32:30.059Z,25.40
2023-02-14T02:35:41.545Z,26.00
2023-02-14T02:38:36.259Z,29.05
2023-02-14T02:41:24.149Z,23.13
2023-02-14T02:44:12.195Z,27.83
2023-02-14T02:46:55.276Z,20.27
2023-02-14T02:50:10.914Z,25.93
2023-02-14T02:53:04.280Z,24.70
2023-02-14T02:56:12.215Z,27.70
2023-02-14T02:58:49.879Z,23.70
2023-02-14T03:01:26.726Z,25.53
2023-02-14T03:04:20.977Z,21.50
2023-02-14T03:06:53.350Z,22.53
2023-02-14T03:09:27.745Z,22.67
2023-02-14T03:12:11.819Z,25.50
2023-02-14T03:15:27.765Z,27.20
2023-02-14T03:18:08.699Z,26.27
2023-02-14T03:20:49.594Z,25.63
2023-02-14T03:23:27.714Z,24.27
2023-02-14T03:26:27.662Z,19.30
2023-02-14T03:29:20.198Z,24.40
2023-02-14T03:32:02.525Z,20.30
2023-02-14T03:34:55.365Z,25.40
2023-02-14T03:37:34.021Z,24.33
2023-02-14T03:40:40.311Z,24.17
2023-02-14T03:43:20.906Z,20.53
2023-02-14T03:46:15.153Z,27.70
2023-02-14T03:48:48.367Z,24.00
2023-02-14T03:51:22.718Z,23.50
2023-02-14T03:53:57.808Z,24.37
2023-02-14T03:56:35.489Z,29.73
2023-02-14T03:59:12.381Z,26.93
2023-02-14T04:01:50.475Z,25.37
2023-02-14T04:04:26.344Z,24.88
2023-02-14T04:06:58.250Z,29.33
2023-02-14T04:09:30.013Z,28.47
2023-02-14T04:12:01.794Z,25.40
2023-02-14T04:14:33.730Z,26.47
2023-02-14T04:17:24.774Z,25.30
2023-02-14T04:19:56.607Z,24.50
2023-02-14T04:22:28.472Z,25.63
2023-02-14T04:25:00.296Z,27.23
2023-02-14T04:27:32.065Z,29.63
2023-02-14T04:30:04.912Z,22.17
2023-02-14T04:32:36.641Z,29.23
2023-02-14T04:35:08.514Z,23.20
2023-02-14T04:37:40.479Z,24.43
2023-02-14T04:40:16.665Z,30.67
2023-02-14T04:42:48.420Z,27.20
2023-02-14T04:45:20.185Z,27.70
2023-02-14T04:47:51.963Z,28.93
2023-02-14T04:50:25.836Z,29.93
2023-02-14T04:52:57.684Z,28.60
2023-02-14T04:55:29.488Z,26.90
2023-02-14T04:58:01.201Z,27.37
2023-02-14T05:00:33.089Z,28.50
2023-02-14T05:03:04.842Z,26.60
2023-02-14T05:05:36.609Z,32.17
2023-02-14T05:08:08.437Z,25.63
2023-02-14T05:10:40.355Z,30.50
2023-02-14T05:13:12.105Z,24.00
2023-02-14T05:15:45.500Z,31.10
2023-02-14T05:18:17.306Z,30.23
2023-02-14T05:20:53.719Z,30.73
2023-02-14T05:23:25.510Z,30.60
2023-02-14T05:25:57.240Z,28.17
2023-02-14T05:28:28.994Z,25.83
2023-02-14T05:31:01.470Z,28.80
2023-02-14T05:33:33.433Z,25.67
2023-02-14T05:36:05.471Z,26.67
2023-02-14T05:38:37.251Z,26.97
2023-02-14T05:41:09.039Z,28.40
2023-02-14T05:43:40.800Z,32.80
2023-02-14T05:46:12.561Z,25.97
2023-02-14T05:48:45.782Z,25.17
2023-02-14T05:51:17.514Z,23.70
2023-02-14T05:53:49.310Z,31.07
2023-02-14T05:56:21.121Z,28.93
2023-02-14T05:58:52.945Z,30.80
2023-02-14T06:01:24.755Z,28.60
2023-02-14T06:03:56.474Z,25.87
2023-02-14T06:06:28.234Z,31.60
2023-02-14T06:08:59.976Z,28.47
2023-02-14T06:11:31.874Z,28.13
2023-02-14T06:14:03.737Z,37.47
2023-02-14T06:16:35.593Z,37.03
2023-02-14T06:19:07.572Z,31.27
2023-02-14T06:21:39.298Z,29.47
2023-02-14T06:24:11.104Z,31.37
2023-02-14T06:26:42.853Z,30.37
2023-02-14T06:29:17.069Z,29.30
2023-02-14T06:31:48.959Z,32.27
2023-02-14T06:34:20.789Z,26.20
2023-02-14T06:36:52.464Z,32.10
2023-02-14T06:39:24.190Z,30.10
2023-02-14T06:41:56.222Z,34.03
2023-02-14T06:44:28.071Z,34.90
2023-02-14T06:47:00.038Z,26.27
2023-02-14T06:49:31.740Z,32.63
2023-02-14T06:52:05.760Z,36.13
2023-02-14T06:54:37.516Z,31.47
2023-02-14T06:57:09.279Z,38.33
2023-02-14T06:59:41.017Z,40.17
2023-02-14T07:02:12.861Z,30.10
2023-02-14T07:04:44.737Z,34.70
2023-02-14T07:07:16.529Z,38.05
2023-02-14T07:09:48.364Z,36.73
2023-02-14T07:12:20.099Z,34.13
2023-02-14T07:14:51.933Z,30.77
2023-02-14T07:17:23.719Z,34.43
2023-02-14T07:19:55.553Z,40.70
2023-02-14T07:22:28.621Z,42.23
2023-02-14T07:25:01.276Z,33.93
2023-02-14T07:27:33.552Z,31.50
2023-02-14T07:30:07.204Z,32.10
2023-02-14T07:32:39.757Z,34.03
2023-02-14T07:35:13.856Z,35.43
2023-02-14T07:37:46.773Z,37.77
2023-02-14T07:40:20.000Z,35.30
2023-02-14T07:42:56.824Z,33.63
2023-02-14T07:45:28.770Z,31.13
2023-02-14T07:48:02.210Z,39.20
2023-02-14T07:50:34.029Z,35.73
2023-02-14T07:53:05.839Z,39.27
2023-02-14T07:55:37.653Z,35.63
2023-02-14T07:58:09.489Z,40.77
2023-02-14T08:00:41.294Z,57.63
2023-02-14T08:03:13.636Z,37.57
2023-02-14T08:05:56.911Z,46.73
2023-02-14T08:08:30.911Z,45.60
2023-02-14T08:11:03.175Z,46.17
2023-02-14T08:13:35.044Z,45.70
2023-02-14T08:16:11.723Z,49.53
2023-02-14T08:18:44.374Z,46.60
2023-02-14T08:21:17.213Z,49.90
2023-02-14T08:23:48.913Z,50.60
2023-02-14T08:26:20.630Z,43.73
2023-02-14T08:28:52.380Z,48.93
2023-02-14T08:31:36.223Z,45.03
2023-02-14T08:34:08.717Z,49.43
2023-02-14T08:36:40.823Z,44.53
2023-02-14T08:39:12.556Z,45.17
2023-02-14T08:41:44.226Z,45.73
2023-02-14T08:44:16.478Z,47.30
2023-02-14T08:46:48.277Z,48.40
2023-02-14T08:49:20.007Z,43.27
2023-02-14T08:51:51.716Z,46.13
2023-02-14T08:54:23.449Z,46.80
2023-02-14T08:56:55.265Z,46.87
2023-02-14T08:59:26.952Z,42.20
2023-02-14T09:01:58.836Z,50.07
2023-02-14T09:04:30.604Z,41.13
2023-02-14T09:07:04.548Z,37.80
2023-02-14T09:09:36.854Z,36.97
2023-02-14T09:12:10.087Z,39.30
2023-02-14T09:14:44.099Z,41.27
2023-02-14T09:17:16.683Z,41.10
2023-02-14T09:19:48.452Z,47.50
2023-02-14T09:22:20.957Z,42.33
2023-02-14T09:24:52.612Z,41.43
2023-02-14T09:27:24.559Z,42.40
2023-02-14T09:29:56.369Z,41.77
2023-02-14T09:32:29.233Z,37.83
2023-02-14T09:35:19.796Z,38.20
2023-02-14T09:38:10.210Z,36.33
2023-02-14T09:40:42.695Z,43.63
2023-02-14T09:43:32.603Z,38.63
2023-02-14T09:46:07.485Z,40.67
2023-02-14T09:48:44.978Z,34.40
2023-02-14T09:51:26.369Z,29.27
2023-02-14T09:54:09.206Z,29.23
2023-02-14T09:56:57.810Z,28.73
2023-02-14T09:59:44.624Z,29.73
2023-02-14T10:02:29.995Z,24.47
2023-02-14T10:05:21.971Z,25.20
2023-02-14T10:08:10.715Z,25.40
2023-02-14T10:10:46.503Z,23.00
2023-02-14T10:13:28.356Z,23.17
2023-02-14T10:16:11.410Z,28.20
2023-02-14T10:18:50.833Z,27.00
2023-02-14T10:21:31.433Z,25.77
2023-02-14T10:24:34.247Z,21.93
2023-02-14T10:27:35.721Z,24.17
2023-02-14T10:30:16.926Z,23.50
2023-02-14T10:32:58.984Z,22.50
2023-02-14T10:35:53.627Z,22.80
2023-02-14T10:38:37.009Z,21.93
2023-02-14T10:41:31.358Z,23.87
2023-02-14T10:44:18.342Z,23.40
2023-02-14T10:47:05.103Z,24.50
2023-02-14T10:50:09.561Z,19.87
2023-02-14T10:52:58.993Z,21.23
2023-02-14T10:55:57.017Z,20.20
2023-02-14T10:58:33.584Z,23.70
2023-02-14T11:01:17.469Z,25.70
2023-02-14T11:04:03.686Z,21.17
2023-02-14T11:06:35.723Z,20.47
2023-02-14T11:09:07.502Z,20.90
2023-02-14T11:11:51.271Z,20.13
2023-02-14T11:14:26.379Z,20.40
2023-02-14T11:16:59.531Z,22.40
2023-02-14T11:19:37.273Z,20.20
2023-02-14T11:22:10.231Z,18.53
2023-02-14T11:24:42.556Z,22.30
2023-02-14T11:27:14.287Z,19.40
2023-02-14T11:29:52.963Z,19.70
2023-02-14T11:32:31.011Z,23.13
2023-02-14T11:35:20.218Z,19.97
2023-02-14T11:37:53.845Z,18.23
2023-02-14T11:40:34.925Z,23.53
2023-02-14T11:43:15.516Z,18.73
2023-02-14T11:45:49.622Z,20.53
2023-02-14T11:48:39.562Z,18.60
2023-02-14T11:51:16.412Z,19.87
2023-02-14T11:53:56.389Z,18.90
2023-02-14T11:56:48.467Z,20.80
2023-02-14T11:59:43.924Z,22.63
2023-02-14T12:02:39.447Z,27.40
2023-02-14T12:05:30.655Z,17.73
2023-02-14T12:08:05.220Z,17.10
2023-02-14T12:10:42.075Z,22.47
2023-02-14T12:13:13.810Z,18.87
2023-02-14T12:15:56.929Z,15.80
2023-02-14T12:18:56.710Z,16.40
2023-02-14T12:21:46.933Z,14.97
2023-02-14T12:24:40.149Z,18.63
2023-02-14T12:27:20.092Z,15.97
2023-02-14T12:30:01.391Z,15.13
2023-02-14T12:32:34.023Z,16.60
2023-02-14T12:35:19.485Z,14.50
2023-02-14T12:38:04.951Z,17.47
2023-02-14T12:40:51.864Z,16.23
2023-02-14T12:43:45.094Z,15.87
2023-02-14T12:46:31.597Z,17.90
2023-02-14T12:49:28.299Z,14.70
2023-02-14T12:52:12.194Z,17.70
2023-02-14T12:54:52.606Z,16.13
2023-02-14T12:57:42.833Z,14.17
2023-02-14T13:01:03.962Z,14.87
2023-02-14T13:04:15.473Z,15.90
2023-02-14T13:07:05.319Z,12.43
2023-02-14T13:09:47.502Z,12.97
2023-02-14T13:12:21.492Z,19.63
2023-02-14T13:15:19.061Z,13.20
2023-02-14T13:18:05.983Z,14.63
2023-02-14T13:20:50.484Z,16.10
2023-02-14T13:23:29.927Z,18.08
2023-02-14T13:26:11.918Z,15.57
2023-02-14T13:29:00.782Z,17.60
2023-02-14T13:31:33.850Z,20.47
2023-02-14T13:34:42.351Z,18.93
2023-02-14T13:37:18.473Z,19.60
2023-02-14T13:40:18.627Z,17.37
2023-02-14T13:42:53.227Z,20.37
2023-02-14T13:45:40.132Z,17.30
2023-02-14T13:48:13.476Z,26.33
2023-02-14T13:51:10.090Z,20.87
2023-02-14T13:53:49.577Z,20.90
2023-02-14T13:56:21.219Z,21.50
2023-02-14T13:59:04.533Z,18.70
2023-02-14T14:01:48.253Z,24.93
2023-02-14T14:04:29.198Z,21.10
2023-02-14T14:07:03.901Z,24.53
2023-02-14T14:09:44.232Z,28.17
2023-02-14T14:12:28.385Z,22.07
2023-02-14T14:15:06.306Z,20.33
2023-02-14T14:17:49.652Z,27.40
2023-02-14T14:20:21.306Z,23.00
2023-02-14T14:22:58.599Z,19.20
2023-02-14T14:25:48.426Z,25.03
2023-02-14T14:28:23.837Z,26.30
2023-02-14T14:30:55.934Z,24.57
2023-02-14T14:33:33.116Z,24.90
2023-02-14T14:36:10.269Z,23.53
2023-02-14T14:38:51.285Z,24.53
2023-02-14T14:41:29.301Z,24.10
2023-02-14T14:44:01.344Z,28.63
2023-02-14T14:46:33.731Z,22.77
2023-02-14T14:49:10.733Z,27.60
2023-02-14T14:51:43.279Z,32.20
2023-02-14T14:54:21.272Z,28.00
2023-02-14T14:57:01.604Z,24.87
2023-02-14T14:59:40.332Z,25.93
2023-02-14T15:02:27.928Z,29.63
2023-02-14T15:05:14.672Z,25.90
2023-02-14T15:07:46.539Z,28.83
2023-02-14T15:10:27.525Z,26.33
2023-02-14T15:13:17.931Z,22.63
2023-02-14T15:15:51.472Z,22.67
2023-02-14T15:18:23.432Z,24.37
2023-02-14T15:20:55.366Z,31.43
2023-02-14T15:23:28.143Z,22.27
2023-02-14T15:26:00.853Z,22.90
2023-02-14T15:28:35.498Z,30.10
2023-02-14T15:31:07.879Z,29.17
2023-02-14T15:33:40.035Z,34.43
2023-02-14T15:36:20.120Z,24.67
2023-02-14T15:38:54.568Z,25.03
2023-02-14T15:41:27.070Z,21.87
2023-02-14T15:43:59.315Z,24.67
2023-02-14T15:46:37.819Z,19.70
2023-02-14T15:49:11.845Z,21.40
2023-02-14T15:51:44.023Z,20.30
2023-02-14T15:54:43.888Z,20.73
2023-02-14T15:57:24.080Z,20.70
2023-02-14T15:59:55.853Z,21.00
2023-02-14T16:02:36.661Z,22.37
2023-02-14T16:05:21.812Z,24.20
2023-02-14T16:08:23.997Z,23.53
2023-02-14T16:11:13.526Z,22.17
2023-02-14T16:13:46.756Z,21.80
2023-02-14T16:16:18.454Z,20.03
2023-02-14T16:18:56.591Z,18.40
2023-02-14T16:21:32.173Z,24.10
2023-02-14T16:24:06.859Z,19.03
2023-02-14T16:26:44.345Z,20.63
2023-02-14T16:29:17.657Z,22.10
2023-02-14T16:32:22.311Z,26.53
2023-02-14T16:34:44.366Z,21.40
2023-02-14T16:37:23.250Z,23.40
2023-02-14T16:39:58.342Z,20.57
2023-02-14T16:42:31.356Z,25.23
2023-02-14T16:45:03.085Z,26.13
2023-02-14T16:47:34.768Z,22.80
2023-02-14T16:50:07.081Z,25.60
2023-02-14T16:52:40.185Z,23.20
2023-02-14T16:55:17.741Z,28.27
2023-02-14T16:57:51.469Z,24.92
2023-02-14T17:00:23.489Z,22.50
2023-02-14T17:03:04.433Z,23.13
2023-02-14T17:05:36.305Z,21.80
2023-02-14T17:08:11.973Z,29.30
2023-02-14T17:10:47.520Z,28.33
2023-02-14T17:13:23.928Z,24.53
2023-02-14T17:15:56.279Z,28.67
2023-02-14T17:18:30.558Z,28.13
2023-02-14T17:21:04.148Z,26.23
2023-02-14T17:23:36.148Z,18.83
2023-02-14T17:26:07.974Z,28.70
2023-02-14T17:28:39.765Z,24.30
2023-02-14T17:31:11.874Z,24.80
2023-02-14T17:33:43.762Z,31.23
2023-02-14T17:36:15.606Z,32.60
2023-02-14T17:38:47.394Z,34.53
2023-02-14T17:41:25.019Z,30.30
2023-02-14T17:44:00.266Z,31.17
2023-02-14T17:46:32.093Z,32.13
2023-02-14T17:49:03.995Z,27.37
2023-02-14T17:51:35.761Z,33.60
2023-02-14T17:54:08.169Z,35.30
2023-02-14T17:56:40.251Z,29.37
2023-02-14T17:59:11.922Z,43.83
2023-02-14T18:01:43.692Z,34.00
2023-02-14T18:04:15.445Z,34.10
2023-02-14T18:06:47.576Z,32.93
2023-02-14T18:09:19.748Z,34.33
2023-02-14T18:11:51.626Z,37.20
2023-02-14T18:14:23.378Z,32.00
2023-02-14T18:16:55.133Z,39.03
2023-02-14T18:19:26.979Z,30.00
2023-02-14T18:21:58.741Z,33.37
2023-02-14T18:24:30.423Z,31.43
2023-02-14T18:27:02.927Z,30.10
2023-02-14T18:29:36.093Z,30.70
2023-02-14T18:32:07.802Z,35.33
2023-02-14T18:34:39.682Z,32.50
2023-02-14T18:37:13.145Z,32.30
2023-02-14T18:39:44.911Z,28.63
2023-02-14T18:42:16.680Z,33.10
2023-02-14T18:44:48.378Z,33.77
2023-02-14T18:47:20.136Z,35.75
2023-02-14T18:49:51.913Z,33.53
2023-02-14T18:52:23.988Z,29.90
2023-02-14T18:54:58.409Z,40.20
2023-02-14T18:57:30.192Z,31.90
2023-02-14T19:00:06.703Z,37.70
2023-02-14T19:02:39.460Z,35.43
2023-02-14T19:05:11.267Z,40.50
2023-02-14T19:07:42.931Z,33.20
2023-02-14T19:10:14.699Z,38.60
2023-02-14T19:12:46.419Z,39.67
2023-02-14T19:15:19.156Z,35.03
2023-02-14T19:17:50.871Z,48.30
2023-02-14T19:20:22.609Z,42.03
2023-02-14T19:22:54.553Z,36.60
2023-02-14T19:25:28.358Z,36.03
2023-02-14T19:28:00.094Z,38.10
2023-02-14T19:30:31.945Z,37.80
2023-02-14T19:33:05.172Z,38.97
2023-02-14T19:35:36.907Z,43.70
2023-02-14T19:38:08.654Z,33.20
2023-02-14T19:40:44.955Z,36.72
2023-02-14T19:43:16.704Z,35.73
2023-02-14T19:45:48.627Z,34.37
2023-02-14T19:48:20.404Z,30.83
2023-02-14T19:50:53.176Z,37.67
2023-02-14T19:53:24.848Z,34.70
2023-02-14T19:55:56.533Z,36.37
2023-02-14T19:58:28.313Z,38.20
2023-02-14T20:01:00.870Z,37.47
2023-02-14T20:03:35.262Z,36.50
2023-02-14T20:06:07.441Z,44.87
2023-02-14T20:08:39.183Z,38.43
2023-02-14T20:11:31.373Z,39.87
2023-02-14T20:14:04.080Z,40.95
2023-02-14T20:16:37.010Z,41.27
2023-02-14T20:19:16.225Z,41.87
2023-02-14T20:21:49.978Z,39.57
2023-02-14T20:24:27.385Z,38.93
2023-02-14T20:27:00.488Z,42.70
2023-02-14T20:29:33.162Z,40.97
2023-02-14T20:32:05.322Z,43.07
2023-02-14T20:34:37.087Z,43.27
2023-02-14T20:37:11.155Z,34.13
2023-02-14T20:39:42.887Z,36.30
2023-02-14T20:42:14.612Z,43.43
2023-02-14T20:44:46.355Z,40.10
2023-02-14T20:47:18.147Z,40.33
2023-02-14T20:49:49.973Z,40.47
2023-02-14T20:52:21.784Z,44.93
2023-02-14T20:54:53.489Z,36.07
2023-02-14T20:57:25.216Z,35.93
2023-02-14T20:59:56.878Z,37.70
2023-02-14T21:02:28.593Z,37.97
2023-02-14T21:05:00.335Z,46.47
2023-02-14T21:07:32.324Z,45.57
2023-02-14T21:10:04.497Z,41.40
2023-02-14T21:12:38.173Z,44.17
2023-02-14T21:15:11.309Z,44.53
2023-02-14T21:17:43.041Z,41.43
2023-02-14T21:20:15.130Z,51.23
2023-02-14T21:22:46.940Z,46.53
2023-02-14T21:25:18.666Z,48.23
2023-02-14T21:27:50.432Z,47.83
2023-02-14T21:30:22.186Z,46.83
2023-02-14T21:32:53.911Z,51.73
2023-02-14T21:35:25.669Z,45.27
2023-02-14T21:37:57.472Z,52.10
2023-02-14T21:40:29.169Z,48.37
2023-02-14T21:43:00.894Z,39.20
2023-02-14T21:45:51.269Z,46.07
2023-02-14T21:48:41.993Z,43.27
2023-02-14T21:51:15.352Z,50.83
2023-02-14T21:53:47.529Z,45.00
2023-02-14T21:56:20.243Z,36.20
2023-02-14T21:58:53.816Z,42.70
2023-02-14T22:01:31.442Z,49.03
2023-02-14T22:04:07.789Z,48.20
2023-02-14T22:06:41.551Z,46.25
2023-02-14T22:09:14.390Z,54.40
2023-02-14T22:11:49.224Z,48.65
2023-02-14T22:14:21.067Z,48.30
2023-02-14T22:16:52.884Z,47.57
2023-02-14T22:19:24.936Z,45.40
2023-02-14T22:21:56.689Z,45.70
2023-02-14T22:24:28.500Z,45.53
2023-02-14T22:27:00.279Z,45.33
2023-02-14T22:29:32.031Z,33.60
2023-02-14T22:32:03.871Z,46.13
2023-02-14T22:34:35.661Z,47.03
2023-02-14T22:37:07.532Z,39.23
2023-02-14T22:39:39.313Z,50.83
2023-02-14T22:42:11.043Z,52.75
2023-02-14T22:44:42.709Z,48.47
2023-02-14T22:47:14.543Z,47.57
2023-02-14T22:49:46.345Z,44.73
2023-02-14T22:52:18.076Z,36.47
2023-02-14T22:54:53.757Z,39.30
2023-02-14T22:57:25.779Z,42.93
2023-02-14T22:59:57.589Z,39.10
2023-02-14T23:02:29.414Z,33.80
2023-02-14T23:05:01.140Z,37.17
2023-02-14T23:07:32.853Z,36.57
2023-02-14T23:10:05.369Z,33.97
2023-02-14T23:12:55.600Z,34.50
2023-02-14T23:15:46.012Z,42.13
2023-02-14T23:18:36.417Z,37.50
2023-02-14T23:21:33.640Z,38.27
2023-02-14T23:24:05.641Z,30.97
2023-02-14T23:26:37.433Z,38.73
2023-02-14T23:29:09.301Z,32.80
2023-02-14T23:31:41.351Z,33.57
2023-02-14T23:34:13.250Z,28.20
2023-02-14T23:36:45.149Z,30.13
2023-02-14T23:39:16.911Z,30.70
2023-02-14T23:41:49.207Z,31.77
2023-02-14T23:44:26.045Z,32.08
2023-02-14T23:47:00.151Z,35.13
2023-02-14T23:49:34.288Z,36.67
2023-02-14T23:52:09.181Z,35.20
2023-02-14T23:54:42.112Z,35.43
2023-02-14T23:57:13.871Z,36.47
2023-02-14T23:59:45.620Z,36.73
